Time;durP1;ratioP1;P1;durP2;ratioP2;P2;SDS_P1;SDS_P2;PMS_P1;PMS_P2;Temp;Humidity;BMP_temperature;BMP_pressure;BME280_temperature;BME280_humidity;BME280_pressure;Samples;Min_cycle;Max_cycle;Signal;HPM_P1;HPM_P2
2022/03/24 00:00:23;;;;;;;29.70;19.50;;;10.60;80.60;;;;;;4145670;28;20052;-67
2022/03/24 00:02:23;;;;;;;29.88;19.40;;;10.50;83.00;;;;;;4143102;28;20065;-66
2022/03/24 00:04:24;;;;;;;27.02;17.67;;;10.60;84.20;;;;;;4146758;28;20041;-66
2022/03/24 00:06:25;;;;;;;28.45;17.20;;;10.60;86.10;;;;;;4145560;28;20038;-65
2022/03/24 00:08:25;;;;;;;29.20;19.45;;;10.60;84.50;;;;;;4144304;28;20065;-66
2022/03/24 00:10:26;;;;;;;34.15;19.38;;;10.60;84.20;;;;;;4142801;28;20073;-66
2022/03/24 00:12:27;;;;;;;31.27;18.90;;;10.60;86.00;;;;;;4144830;28;20083;-66
2022/03/24 00:14:28;;;;;;;29.83;17.88;;;10.60;85.20;;;;;;4146057;28;20061;-66
2022/03/24 00:16:28;;;;;;;28.08;18.48;;;10.70;88.20;;;;;;4147295;28;20064;-67
2022/03/24 00:18:32;;;;;;;29.40;19.15;;;10.60;88.20;;;;;;4144174;28;20129;-66
2022/03/24 00:20:34;;;;;;;27.90;18.05;;;10.70;86.20;;;;;;4144540;28;20046;-66
2022/03/24 00:22:35;;;;;;;26.40;17.65;;;10.70;87.70;;;;;;4146134;28;20042;-66
2022/03/24 00:24:37;;;;;;;29.70;19.10;;;10.70;88.60;;;;;;4141357;28;20552;-66
2022/03/24 00:26:38;;;;;;;29.15;18.90;;;10.70;88.50;;;;;;4146066;28;20042;-66
2022/03/24 00:28:39;;;;;;;29.63;18.88;;;10.80;90.00;;;;;;4149218;28;20076;-66
2022/03/24 00:30:40;;;;;;;27.77;18.98;;;10.80;90.00;;;;;;4142751;28;20038;-66
2022/03/24 00:32:40;;;;;;;32.28;19.67;;;10.80;89.30;;;;;;4144862;28;20040;-67
2022/03/24 00:34:41;;;;;;;29.13;19.23;;;10.80;90.00;;;;;;4144004;28;20041;-66
2022/03/24 00:36:41;;;;;;;32.60;19.30;;;10.80;88.50;;;;;;4144103;28;20062;-66
2022/03/24 00:38:42;;;;;;;31.52;20.33;;;10.80;89.10;;;;;;4141970;28;20049;-66
2022/03/24 00:40:43;;;;;;;28.17;19.13;;;10.80;88.60;;;;;;4142515;28;20151;-66
2022/03/24 00:42:45;;;;;;;31.35;20.63;;;10.80;87.70;;;;;;4144232;28;20072;-66
2022/03/24 00:44:46;;;;;;;30.75;20.27;;;10.70;86.30;;;;;;4145469;28;20049;-66
2022/03/24 00:46:46;;;;;;;29.98;19.60;;;10.70;87.40;;;;;;4142630;28;20029;-66
2022/03/24 00:48:48;;;;;;;30.63;19.10;;;10.70;90.70;;;;;;4144611;28;20582;-66
2022/03/24 00:50:49;;;;;;;31.10;20.10;;;10.70;90.20;;;;;;4142664;28;20109;-66
2022/03/24 00:52:49;;;;;;;28.55;18.75;;;10.70;89.80;;;;;;4148306;28;20022;-66
2022/03/24 00:54:50;;;;;;;29.77;18.65;;;10.70;90.10;;;;;;4143045;28;20041;-66
2022/03/24 00:56:50;;;;;;;30.58;18.85;;;10.70;90.30;;;;;;4145905;28;20045;-66
2022/03/24 00:58:51;;;;;;;26.35;18.13;;;10.70;90.10;;;;;;4144947;28;20053;-66
2022/03/24 01:00:53;;;;;;;26.92;17.75;;;10.70;89.90;;;;;;4144260;28;20077;-66
2022/03/24 01:02:54;;;;;;;23.85;16.25;;;10.70;90.00;;;;;;4144171;28;20177;-66
2022/03/24 01:04:55;;;;;;;28.13;17.42;;;10.60;89.80;;;;;;4143439;28;20058;-66
2022/03/24 01:06:56;;;;;;;25.55;16.23;;;10.60;90.30;;;;;;4149066;28;20523;-66
2022/03/24 01:08:58;;;;;;;24.70;17.20;;;10.60;87.60;;;;;;4144173;28;20041;-66
2022/03/24 01:10:59;;;;;;;22.75;16.13;;;10.60;89.30;;;;;;4141990;28;20120;-66
2022/03/24 01:13:01;;;;;;;24.95;17.25;;;10.60;90.20;;;;;;4143774;28;20026;-66
2022/03/24 01:15:04;;;;;;;24.95;16.38;;;10.60;90.60;;;;;;4145192;28;20046;-66
2022/03/24 01:17:07;;;;;;;27.40;17.35;;;10.60;91.20;;;;;;4124494;28;20046;-66
2022/03/24 01:19:08;;;;;;;;;;;10.50;91.90;;;;;;4142021;28;20104;-66
2022/03/24 01:21:09;;;;;;;24.95;16.15;;;10.50;92.00;;;;;;4143291;28;20311;-66
2022/03/24 01:23:11;;;;;;;26.88;17.10;;;10.50;91.70;;;;;;4142363;28;20041;-66
2022/03/24 01:25:12;;;;;;;24.48;16.42;;;10.50;90.80;;;;;;4144465;28;21207;-66
2022/03/24 01:27:14;;;;;;;26.95;16.05;;;10.50;90.60;;;;;;4147579;28;20030;-66
2022/03/24 01:29:15;;;;;;;27.00;17.23;;;10.50;91.30;;;;;;4145067;28;20058;-66
2022/03/24 01:31:16;;;;;;;26.63;17.20;;;10.40;91.90;;;;;;4146612;28;20056;-66
2022/03/24 01:33:16;;;;;;;24.40;16.65;;;10.40;92.70;;;;;;4143794;28;20128;-66
2022/03/24 01:35:17;;;;;;;23.90;16.88;;;10.40;93.00;;;;;;4142634;28;20044;-66
2022/03/24 01:37:18;;;;;;;24.92;17.15;;;10.40;93.30;;;;;;4145165;28;20108;-66
2022/03/24 01:39:18;;;;;;;25.80;17.00;;;10.40;92.80;;;;;;4144796;28;20121;-66
2022/03/24 01:41:22;;;;;;;26.05;17.02;;;10.40;92.70;;;;;;4142018;28;20493;-66
2022/03/24 01:43:23;;;;;;;25.50;15.98;;;10.30;92.80;;;;;;4143053;28;20042;-66
2022/03/24 01:45:25;;;;;;;23.83;15.63;;;10.40;91.10;;;;;;4145500;28;20069;-66
2022/03/24 01:47:26;;;;;;;24.30;16.42;;;10.30;91.10;;;;;;4144984;28;20069;-66
2022/03/24 01:49:31;;;;;;;23.50;16.10;;;10.30;92.00;;;;;;4142806;28;20042;-66
2022/03/24 01:51:31;;;;;;;24.38;16.63;;;10.30;91.00;;;;;;4142111;28;20030;-66
2022/03/24 01:53:32;;;;;;;24.30;15.20;;;10.30;91.20;;;;;;4145501;28;20038;-66
2022/03/24 01:55:34;;;;;;;25.15;16.02;;;10.20;90.90;;;;;;4141849;28;20038;-66
2022/03/24 01:57:36;;;;;;;23.05;15.75;;;10.20;91.60;;;;;;4142329;28;20380;-67
2022/03/24 01:59:37;;;;;;;24.17;15.40;;;10.20;92.60;;;;;;4142235;28;20401;-66
2022/03/24 02:01:38;;;;;;;25.75;16.40;;;10.20;92.40;;;;;;4141741;28;20049;-66
2022/03/24 02:03:40;;;;;;;26.58;16.55;;;10.10;93.20;;;;;;4147639;28;20034;-66
2022/03/24 02:05:41;;;;;;;25.88;16.05;;;10.10;93.70;;;;;;4140989;28;20061;-66
2022/03/24 02:07:42;;;;;;;24.05;16.15;;;10.00;93.40;;;;;;4143179;28;20454;-66
2022/03/24 02:09:43;;;;;;;22.27;15.25;;;10.00;94.80;;;;;;4142770;28;20093;-66
2022/03/24 02:11:44;;;;;;;29.45;17.90;;;10.00;94.70;;;;;;4144166;28;20144;-66
2022/03/24 02:13:44;;;;;;;23.85;16.08;;;10.00;94.60;;;;;;4144010;28;20045;-66
2022/03/24 02:15:47;;;;;;;27.77;16.27;;;10.00;95.70;;;;;;4140933;28;20037;-66
2022/03/24 02:17:48;;;;;;;;;;;10.00;95.10;;;;;;4145546;28;20466;-66
2022/03/24 02:19:49;;;;;;;27.45;16.23;;;10.00;95.70;;;;;;4143219;28;19924;-66
2022/03/24 02:21:52;;;;;;;27.48;17.30;;;10.00;97.20;;;;;;4143902;28;20046;-66
2022/03/24 02:23:52;;;;;;;25.05;17.13;;;10.00;97.30;;;;;;4143638;28;20521;-66
2022/03/24 02:25:55;;;;;;;26.27;18.05;;;9.90;95.40;;;;;;4141080;28;20092;-66
2022/03/24 02:27:56;;;;;;;25.42;17.15;;;9.90;94.10;;;;;;4141190;28;20060;-66
2022/03/24 02:29:57;;;;;;;27.40;17.63;;;9.90;94.60;;;;;;4144279;28;20033;-66
2022/03/24 02:31:58;;;;;;;26.30;17.38;;;9.90;94.40;;;;;;4142809;28;20385;-66
2022/03/24 02:36:20;;;;;;;26.10;17.08;;;9.90;96.00;;;;;;4144178;28;20046;-66
2022/03/24 02:38:21;;;;;;;27.80;16.77;;;9.80;95.20;;;;;;4142424;28;20057;-66
2022/03/24 02:40:21;;;;;;;23.70;15.50;;;9.80;93.80;;;;;;4141297;28;20038;-66
2022/03/24 02:42:25;;;;;;;25.33;16.80;;;9.80;94.30;;;;;;4142938;28;20034;-66
2022/03/24 02:44:30;;;;;;;24.33;15.82;;;9.70;94.70;;;;;;4143227;28;20092;-66
2022/03/24 02:46:30;;;;;;;31.70;17.45;;;9.70;95.50;;;;;;4143108;28;20045;-66
2022/03/24 02:48:31;;;;;;;23.02;15.15;;;9.70;95.60;;;;;;4143118;28;20128;-66
2022/03/24 02:50:31;;;;;;;22.48;15.35;;;9.70;95.90;;;;;;4144664;28;20096;-65
2022/03/24 02:52:32;;;;;;;23.40;15.27;;;9.60;95.80;;;;;;4144155;28;20117;-66
2022/03/24 02:54:33;;;;;;;23.55;15.85;;;9.60;97.80;;;;;;4141913;28;20049;-65
2022/03/24 02:56:34;;;;;;;24.35;16.15;;;9.60;96.70;;;;;;4143618;28;20042;-66
2022/03/24 02:58:35;;;;;;;26.92;17.77;;;9.60;96.70;;;;;;4143260;28;20049;-66
2022/03/24 03:00:38;;;;;;;29.02;17.45;;;9.50;96.60;;;;;;4144520;28;20037;-66
2022/03/24 03:02:39;;;;;;;28.20;18.10;;;9.50;98.10;;;;;;4144514;28;20037;-66
2022/03/24 03:04:41;;;;;;;25.40;17.08;;;9.50;97.50;;;;;;4143165;28;20046;-66
2022/03/24 03:06:42;;;;;;;26.80;17.55;;;9.50;98.80;;;;;;4143554;28;20037;-66
2022/03/24 03:08:43;;;;;;;25.98;17.35;;;9.50;97.00;;;;;;4143065;28;20029;-66
2022/03/24 03:10:43;;;;;;;25.55;15.63;;;9.40;98.00;;;;;;4142803;28;20074;-67
2022/03/24 03:12:46;;;;;;;23.13;14.73;;;9.40;95.70;;;;;;4142942;28;20049;-66
2022/03/24 03:14:47;;;;;;;24.23;16.58;;;9.30;96.60;;;;;;4146388;28;20177;-66
2022/03/24 03:16:48;;;;;;;24.83;16.50;;;9.30;98.50;;;;;;4145673;28;20042;-66
2022/03/24 03:18:49;;;;;;;24.27;16.30;;;9.30;98.00;;;;;;4145868;28;20394;-66
2022/03/24 03:20:49;;;;;;;27.33;17.20;;;9.20;99.10;;;;;;4146514;28;20045;-66
2022/03/24 03:22:51;;;;;;;29.08;17.70;;;9.20;98.90;;;;;;4146613;28;20050;-66
2022/03/24 03:24:52;;;;;;;27.45;18.38;;;9.20;98.60;;;;;;4146772;28;20042;-66
2022/03/24 03:26:53;;;;;;;27.02;17.60;;;9.20;98.90;;;;;;4146773;28;20065;-66
2022/03/24 03:28:54;;;;;;;27.88;18.23;;;9.20;99.90;;;;;;4147656;28;20050;-66
2022/03/24 03:30:54;;;;;;;27.55;18.17;;;9.20;99.90;;;;;;4144911;28;20453;-65
2022/03/24 03:32:55;;;;;;;28.48;18.50;;;9.20;99.90;;;;;;4143258;28;20117;-67
2022/03/24 03:34:56;;;;;;;27.33;16.95;;;9.20;99.90;;;;;;4149718;28;20038;-66
2022/03/24 03:36:59;;;;;;;28.63;18.30;;;9.20;99.30;;;;;;4144960;28;20037;-66
2022/03/24 03:39:00;;;;;;;26.17;17.75;;;9.20;99.40;;;;;;4144877;28;20561;-66
2022/03/24 03:41:02;;;;;;;30.15;19.13;;;9.20;99.90;;;;;;4144800;28;20038;-66
2022/03/24 03:43:02;;;;;;;28.83;18.52;;;9.20;99.90;;;;;;4145968;28;20040;-66
2022/03/24 03:45:03;;;;;;;27.33;18.38;;;9.10;98.50;;;;;;4147035;28;20038;-67
2022/03/24 03:47:06;;;;;;;29.00;18.83;;;9.20;99.90;;;;;;4146437;28;20065;-66
2022/03/24 03:49:07;;;;;;;27.35;17.20;;;9.10;99.90;;;;;;4145132;28;20117;-66
2022/03/24 03:51:08;;;;;;;22.85;15.30;;;9.10;97.60;;;;;;4141861;28;20053;-66
2022/03/24 03:53:09;;;;;;;24.55;17.08;;;8.90;97.40;;;;;;4147682;28;20400;-66
2022/03/24 03:55:10;;;;;;;24.05;16.17;;;8.90;99.80;;;;;;4146358;28;20138;-68
2022/03/24 03:57:11;;;;;;;25.75;16.27;;;8.90;99.20;;;;;;4145366;28;20571;-66
2022/03/24 03:59:11;;;;;;;25.10;16.65;;;8.80;99.90;;;;;;4145666;28;20045;-66
2022/03/24 04:01:12;;;;;;;25.48;15.98;;;8.90;99.90;;;;;;4147552;28;20374;-66
2022/03/24 04:03:12;;;;;;;28.92;16.85;;;8.80;99.90;;;;;;4145785;28;20034;-66
2022/03/24 04:05:14;;;;;;;24.95;16.45;;;8.80;99.90;;;;;;4145211;28;20461;-66
2022/03/24 04:07:15;;;;;;;27.08;17.27;;;8.80;99.90;;;;;;4146483;28;20046;-66
2022/03/24 04:09:15;;;;;;;28.33;16.70;;;8.80;99.90;;;;;;4145479;28;20046;-66
2022/03/24 04:11:16;;;;;;;27.42;18.23;;;8.80;99.90;;;;;;4127369;28;20034;-66
2022/03/24 04:13:18;;;;;;;30.23;19.17;;;8.80;99.90;;;;;;4144411;28;20462;-66
2022/03/24 04:15:18;;;;;;;32.63;19.98;;;8.80;99.90;;;;;;4145728;28;20030;-66
2022/03/24 04:17:19;;;;;;;30.92;19.00;;;8.80;99.90;;;;;;4145062;28;20041;-65
2022/03/24 04:19:20;;;;;;;30.38;18.50;;;8.80;99.90;;;;;;4144532;28;20058;-66
2022/03/24 04:21:20;;;;;;;30.80;20.02;;;8.70;99.90;;;;;;4142869;28;20165;-66
2022/03/24 04:23:22;;;;;;;29.30;18.85;;;8.70;99.90;;;;;;4144252;28;20049;-66
2022/03/24 04:25:22;;;;;;;32.65;19.38;;;8.70;99.90;;;;;;4145599;28;20132;-66
2022/03/24 04:27:23;;;;;;;31.13;19.20;;;8.70;99.90;;;;;;4146486;28;20030;-66
2022/03/24 04:29:23;;;;;;;32.45;20.00;;;8.80;99.90;;;;;;4145528;28;20054;-66
2022/03/24 04:31:24;;;;;;;30.13;19.80;;;8.70;99.90;;;;;;4144673;28;20065;-65
2022/03/24 04:33:25;;;;;;;30.00;19.48;;;8.70;99.90;;;;;;4144883;28;20092;-66
2022/03/24 04:35:26;;;;;;;29.58;19.63;;;8.70;99.90;;;;;;4143251;28;20045;-66
2022/03/24 04:37:26;;;;;;;30.85;19.65;;;8.70;99.90;;;;;;4144216;28;20041;-65
2022/03/24 04:39:27;;;;;;;28.70;17.58;;;8.70;99.90;;;;;;4145754;28;20038;-66
2022/03/24 04:41:27;;;;;;;27.45;18.02;;;8.70;99.90;;;;;;4142795;28;20041;-65
2022/03/24 04:43:28;;;;;;;27.30;18.08;;;8.70;99.90;;;;;;4143490;28;20030;-65
2022/03/24 04:45:32;;;;;;;31.20;20.38;;;8.70;99.90;;;;;;4143366;28;20033;-65
2022/03/24 04:47:34;;;;;;;31.63;20.17;;;8.60;99.90;;;;;;4144874;28;20065;-66
2022/03/24 04:49:35;;;;;;;28.73;18.67;;;8.60;99.90;;;;;;4144760;28;20046;-66
2022/03/24 04:51:37;;;;;;;32.72;20.17;;;8.60;99.90;;;;;;4144850;28;20049;-66
2022/03/24 04:53:37;;;;;;;34.53;19.60;;;8.60;99.90;;;;;;4145636;28;20038;-66
2022/03/24 04:55:38;;;;;;;34.10;20.80;;;8.60;99.90;;;;;;4142732;28;20038;-66
2022/03/24 04:57:39;;;;;;;34.60;21.10;;;8.60;99.90;;;;;;4144873;28;20547;-66
2022/03/24 04:59:39;;;;;;;32.03;20.13;;;8.60;99.90;;;;;;4145288;28;20052;-66
2022/03/24 05:01:40;;;;;;;33.20;21.15;;;8.60;99.90;;;;;;4142808;28;20068;-66
2022/03/24 05:03:46;;;;;;;34.22;21.60;;;8.60;99.90;;;;;;4144198;28;20046;-66
2022/03/24 05:05:46;;;;;;;34.67;21.40;;;8.50;99.90;;;;;;4144309;28;20050;-66
2022/03/24 05:07:47;;;;;;;34.97;21.95;;;8.50;99.90;;;;;;4147238;28;20072;-66
2022/03/24 05:09:53;;;;;;;31.85;20.88;;;8.50;99.90;;;;;;4145282;28;20466;-66
2022/03/24 05:11:53;;;;;;;31.77;20.48;;;8.50;99.90;;;;;;4143974;28;20046;-66
2022/03/24 05:13:54;;;;;;;35.45;20.85;;;8.50;99.90;;;;;;4145425;28;20069;-66
2022/03/24 05:15:56;;;;;;;36.70;22.15;;;8.40;99.90;;;;;;4142126;28;20030;-66
2022/03/24 05:17:56;;;;;;;34.20;20.40;;;8.40;99.90;;;;;;4158127;28;20072;-66
2022/03/24 05:19:57;;;;;;;32.97;19.83;;;8.40;99.90;;;;;;4131099;28;20042;-66
2022/03/24 05:21:58;;;;;;;31.80;19.33;;;8.40;99.90;;;;;;4147381;28;20034;-66
2022/03/24 05:24:02;;;;;;;33.13;20.83;;;8.30;99.90;;;;;;4147272;28;20057;-65
2022/03/24 05:26:03;;;;;;;34.53;20.25;;;8.30;99.90;;;;;;4141324;28;20481;-66
2022/03/24 05:28:04;;;;;;;29.58;19.70;;;8.30;99.90;;;;;;4143740;28;20050;-66
2022/03/24 05:30:05;;;;;;;29.83;18.50;;;8.30;99.90;;;;;;4142823;28;20038;-67
2022/03/24 05:32:06;;;;;;;30.13;18.48;;;8.30;99.90;;;;;;4147064;28;20092;-66
2022/03/24 05:34:06;;;;;;;24.90;16.20;;;8.20;99.90;;;;;;4142279;28;20125;-66
2022/03/24 05:36:07;;;;;;;27.00;17.55;;;8.20;99.90;;;;;;4142174;28;20478;-65
2022/03/24 05:38:08;;;;;;;28.52;19.10;;;8.20;99.90;;;;;;4146533;28;20037;-66
2022/03/24 05:40:09;;;;;;;33.05;18.77;;;8.20;99.90;;;;;;4144070;28;20481;-66
2022/03/24 05:42:10;;;;;;;27.17;16.75;;;8.20;99.90;;;;;;4145775;28;20500;-66
2022/03/24 05:44:10;;;;;;;30.08;18.55;;;8.10;99.90;;;;;;4146374;28;20037;-66
2022/03/24 05:46:11;;;;;;;27.42;17.83;;;8.10;99.90;;;;;;4144207;28;20030;-66
2022/03/24 05:48:12;;;;;;;27.58;18.73;;;8.10;99.90;;;;;;4145083;28;20521;-66
2022/03/24 05:50:13;;;;;;;27.23;17.95;;;8.10;99.90;;;;;;4141842;28;20180;-66
2022/03/24 05:52:14;;;;;;;31.15;18.90;;;8.10;99.90;;;;;;4140765;28;20038;-66
2022/03/24 05:54:16;;;;;;;27.00;18.08;;;8.10;99.90;;;;;;4141448;28;20176;-66
2022/03/24 05:56:18;;;;;;;34.22;18.02;;;8.10;99.90;;;;;;4146398;28;20207;-66
2022/03/24 05:58:20;;;;;;;28.47;17.60;;;8.10;99.90;;;;;;4146407;28;20030;-66
2022/03/24 06:00:21;;;;;;;29.27;18.02;;;8.00;99.90;;;;;;4141785;28;20277;-66
2022/03/24 06:02:22;;;;;;;28.80;17.85;;;8.00;99.90;;;;;;4147507;28;20396;-66
2022/03/24 06:04:23;;;;;;;31.27;18.23;;;8.10;99.90;;;;;;4141538;28;20077;-66
2022/03/24 06:06:25;;;;;;;33.35;19.60;;;8.00;99.90;;;;;;4140849;28;20096;-66
2022/03/24 06:08:26;;;;;;;30.70;20.23;;;8.10;99.90;;;;;;4156805;28;20045;-66
2022/03/24 06:10:31;;;;;;;30.17;19.00;;;8.10;99.90;;;;;;4139773;28;20389;-66
2022/03/24 06:12:32;;;;;;;29.55;19.15;;;8.10;99.90;;;;;;4142529;28;20121;-65
2022/03/24 06:14:34;;;;;;;33.67;21.38;;;8.10;99.90;;;;;;4141076;28;20049;-66
2022/03/24 06:16:35;;;;;;;31.45;18.45;;;8.10;99.90;;;;;;4140410;28;20050;-66
2022/03/24 06:18:36;;;;;;;28.40;18.92;;;8.10;99.90;;;;;;4140306;28;20069;-66
2022/03/24 06:20:37;;;;;;;31.55;19.85;;;8.10;99.90;;;;;;4139908;28;20453;-66
2022/03/24 06:22:50;;;;;;;33.30;19.98;;;8.00;99.90;;;;;;4138662;28;20116;-66
2022/03/24 06:24:51;;;;;;;31.85;19.65;;;8.10;99.90;;;;;;4139417;28;20093;-66
2022/03/24 06:26:52;;;;;;;33.13;21.17;;;8.10;99.90;;;;;;4139890;28;20465;-66
2022/03/24 06:28:53;;;;;;;31.25;20.63;;;8.10;99.90;;;;;;4140427;28;20041;-66
2022/03/24 06:30:54;;;;;;;33.65;21.00;;;8.10;99.90;;;;;;4139533;28;20038;-66
2022/03/24 06:32:56;;;;;;;33.95;20.65;;;8.10;99.90;;;;;;4141108;28;20120;-65
2022/03/24 06:34:56;;;;;;;31.40;20.05;;;8.10;99.90;;;;;;4140922;28;20096;-66
2022/03/24 06:36:57;;;;;;;30.27;19.98;;;8.20;99.90;;;;;;4141919;28;20045;-66
2022/03/24 06:38:58;;;;;;;31.67;19.80;;;8.20;99.90;;;;;;4140049;28;20053;-65
2022/03/24 06:40:58;;;;;;;29.95;19.70;;;8.30;99.90;;;;;;4142355;28;20038;-66
2022/03/24 06:42:59;;;;;;;30.60;20.20;;;8.40;99.90;;;;;;4144226;28;20453;-65
2022/03/24 06:45:00;;;;;;;33.28;21.52;;;8.60;99.90;;;;;;4140878;28;20117;-65
2022/03/24 06:47:01;;;;;;;31.38;20.48;;;8.70;99.90;;;;;;4140039;28;20614;-65
2022/03/24 06:49:03;;;;;;;35.65;23.25;;;8.80;99.90;;;;;;4139749;28;20038;-66
2022/03/24 06:51:04;;;;;;;35.58;23.10;;;9.00;99.90;;;;;;4138214;28;20041;-66
2022/03/24 06:53:05;;;;;;;37.08;23.10;;;9.20;99.90;;;;;;4119824;28;20565;-66
2022/03/24 06:55:07;;;;;;;37.03;24.45;;;9.50;99.90;;;;;;4140931;28;20042;-68
2022/03/24 06:57:08;;;;;;;38.00;24.20;;;9.70;99.90;;;;;;4140556;28;20655;-66
2022/03/24 06:59:10;;;;;;;34.30;23.15;;;9.90;99.90;;;;;;4142586;28;20482;-66
2022/03/24 07:01:11;;;;;;;35.05;23.90;;;10.10;99.90;;;;;;4140634;28;20034;-66
2022/03/24 07:03:12;;;;;;;31.73;21.40;;;10.40;99.90;;;;;;4140429;28;20576;-66
2022/03/24 07:05:13;;;;;;;33.58;22.65;;;10.50;99.50;;;;;;4140642;28;20499;-68
2022/03/24 07:07:14;;;;;;;33.28;21.75;;;10.70;99.90;;;;;;4137519;28;20045;-66
2022/03/24 07:09:15;;;;;;;32.42;22.38;;;10.80;99.90;;;;;;4141163;28;20068;-67
2022/03/24 07:11:16;;;;;;;34.13;22.88;;;11.10;99.90;;;;;;4135407;28;20070;-66
2022/03/24 07:13:17;;;;;;;34.70;23.50;;;11.30;99.90;;;;;;4123675;28;20101;-67
2022/03/24 07:15:18;;;;;;;37.78;24.30;;;11.60;99.90;;;;;;4139944;28;20460;-67
2022/03/24 07:17:19;;;;;;;35.03;24.27;;;11.80;99.90;;;;;;4141546;28;20513;-66
2022/03/24 07:19:20;;;;;;;34.33;23.27;;;12.10;99.90;;;;;;4141052;28;20062;-67
2022/03/24 07:21:20;;;;;;;37.88;24.90;;;12.40;99.90;;;;;;4141037;28;20048;-67
2022/03/24 07:23:21;;;;;;;33.50;24.00;;;12.60;98.10;;;;;;4141457;28;20054;-67
2022/03/24 07:25:21;;;;;;;40.65;25.17;;;12.90;97.40;;;;;;4140355;28;20092;-67
2022/03/24 07:27:22;;;;;;;35.50;23.60;;;13.10;96.10;;;;;;4140986;28;20042;-67
2022/03/24 07:29:24;;;;;;;38.08;22.67;;;13.40;95.30;;;;;;4141064;28;20390;-67
2022/03/24 07:31:24;;;;;;;35.42;23.98;;;13.60;94.30;;;;;;4139582;28;20037;-67
2022/03/24 07:33:25;;;;;;;34.42;23.98;;;13.80;93.50;;;;;;4141183;28;20436;-67
2022/03/24 07:35:28;;;;;;;38.45;24.33;;;14.00;92.60;;;;;;4123153;28;20042;-68
2022/03/24 07:37:31;;;;;;;39.00;25.98;;;14.20;93.00;;;;;;4140657;28;20103;-66
2022/03/24 07:39:31;;;;;;;;;;;14.40;92.10;;;;;;4140845;28;20038;-67
2022/03/24 07:41:32;;;;;;;37.47;23.95;;;14.60;90.60;;;;;;4139652;28;19913;-67
2022/03/24 07:43:33;;;;;;;33.88;23.73;;;14.70;88.10;;;;;;4133596;28;20516;-67
2022/03/24 07:45:38;;;;;;;38.38;24.38;;;15.00;84.60;;;;;;4138849;28;20053;-67
2022/03/24 07:48:09;;;;;;;34.45;23.77;;;15.20;83.50;;;;;;4138917;28;20046;-66
2022/03/24 07:50:09;;;;;;;38.10;23.48;;;15.40;82.40;;;;;;4116007;28;20136;-68
2022/03/24 07:52:13;;;;;;;35.53;22.77;;;15.70;81.40;;;;;;4138803;28;20080;-67
2022/03/24 07:54:13;;;;;;;32.67;22.58;;;15.90;81.30;;;;;;4138562;28;20172;-67
2022/03/24 07:56:18;;;;;;;33.38;23.52;;;16.20;80.10;;;;;;4138841;28;20054;-67
2022/03/24 07:58:21;;;;;;;33.00;23.27;;;16.40;80.80;;;;;;4139196;28;20041;-67
2022/03/24 08:00:22;;;;;;;34.55;22.10;;;16.70;78.20;;;;;;4141179;28;20054;-67
2022/03/24 08:02:22;;;;;;;31.65;21.85;;;16.90;78.20;;;;;;4140300;28;20042;-67
2022/03/24 08:04:23;;;;;;;29.70;20.92;;;17.00;77.80;;;;;;4142878;28;20045;-68
2022/03/24 08:06:24;;;;;;;30.23;21.05;;;17.00;78.30;;;;;;4140631;28;20050;-67
2022/03/24 08:08:26;;;;;;;30.73;21.65;;;17.10;76.30;;;;;;4142334;28;20038;-67
2022/03/24 08:10:26;;;;;;;30.23;20.35;;;17.20;76.90;;;;;;4141791;28;20120;-68
2022/03/24 08:12:27;;;;;;;29.65;20.27;;;17.30;78.60;;;;;;4142554;28;20038;-67
2022/03/24 08:14:28;;;;;;;30.10;20.05;;;17.40;76.80;;;;;;4142638;28;20026;-67
2022/03/24 08:16:28;;;;;;;30.00;21.40;;;17.50;78.70;;;;;;4141883;28;20038;-67
2022/03/24 08:18:29;;;;;;;28.27;20.23;;;17.60;77.60;;;;;;4126522;28;20690;-66
2022/03/24 08:20:30;;;;;;;31.67;21.30;;;17.70;77.00;;;;;;4139773;28;20054;-67
2022/03/24 08:22:31;;;;;;;27.33;19.50;;;17.80;75.70;;;;;;4141530;28;20046;-67
2022/03/24 08:24:33;;;;;;;26.38;19.30;;;17.80;76.10;;;;;;4140301;28;20408;-67
2022/03/24 08:26:33;;;;;;;30.35;20.02;;;17.90;75.20;;;;;;4141697;28;20125;-67
2022/03/24 08:28:34;;;;;;;29.92;20.13;;;17.90;75.50;;;;;;4142161;28;20424;-67
2022/03/24 08:30:34;;;;;;;28.50;20.67;;;18.00;74.30;;;;;;4140985;28;20034;-67
2022/03/24 08:32:35;;;;;;;30.83;20.40;;;18.00;74.40;;;;;;4140532;28;20168;-66
2022/03/24 08:34:36;;;;;;;32.90;22.90;;;18.00;73.70;;;;;;4142083;28;20132;-67
2022/03/24 08:36:36;;;;;;;31.75;22.67;;;18.10;73.80;;;;;;4141334;28;20409;-67
2022/03/24 08:38:37;;;;;;;39.40;23.48;;;18.10;71.30;;;;;;4142009;28;20397;-67
2022/03/24 08:40:38;;;;;;;33.38;22.45;;;18.10;68.70;;;;;;4141738;28;20243;-67
2022/03/24 08:42:41;;;;;;;33.60;23.08;;;18.20;70.70;;;;;;4141969;28;20030;-67
2022/03/24 08:44:42;;;;;;;33.38;21.98;;;18.20;69.80;;;;;;4142348;28;20034;-67
2022/03/24 08:46:42;;;;;;;30.70;21.95;;;18.30;70.90;;;;;;4140513;28;20041;-67
2022/03/24 08:48:43;;;;;;;32.38;22.83;;;18.30;69.00;;;;;;4141460;28;20100;-67
2022/03/24 08:50:44;;;;;;;33.42;23.23;;;18.20;69.10;;;;;;4141291;28;20042;-68
2022/03/24 08:52:45;;;;;;;34.92;24.10;;;18.20;67.10;;;;;;4141837;28;20375;-67
2022/03/24 08:54:45;;;;;;;35.47;23.63;;;18.30;68.60;;;;;;4140671;28;20045;-67
2022/03/24 08:56:46;;;;;;;32.00;22.55;;;18.30;67.60;;;;;;4140627;28;20030;-67
2022/03/24 08:58:46;;;;;;;33.08;22.27;;;18.30;68.80;;;;;;4140894;28;20054;-67
2022/03/24 09:00:48;;;;;;;34.60;22.77;;;18.30;69.30;;;;;;4140531;28;20066;-67
2022/03/24 09:02:50;;;;;;;32.92;23.13;;;18.30;70.00;;;;;;4140593;28;20045;-67
2022/03/24 09:04:51;;;;;;;;;;;18.30;70.00;;;;;;4141579;28;20109;-67
2022/03/24 09:06:54;;;;;;;32.83;21.92;;;18.30;69.50;;;;;;4139058;28;19917;-67
2022/03/24 09:08:55;;;;;;;36.38;23.63;;;18.30;69.30;;;;;;4140852;28;20045;-67
2022/03/24 09:10:56;;;;;;;33.28;22.92;;;18.40;68.80;;;;;;4140631;28;20103;-67
2022/03/24 09:12:57;;;;;;;36.92;24.38;;;18.40;66.50;;;;;;4141636;28;20121;-67
2022/03/24 09:14:58;;;;;;;33.65;23.75;;;18.40;67.30;;;;;;4140838;28;20056;-66
2022/03/24 09:16:59;;;;;;;31.48;22.15;;;18.40;67.00;;;;;;4140003;28;20102;-67
2022/03/24 09:18:59;;;;;;;36.17;24.15;;;18.50;69.30;;;;;;4140999;28;20096;-66
2022/03/24 09:21:00;;;;;;;32.63;23.15;;;18.50;68.90;;;;;;4140036;28;20037;-67
2022/03/24 09:23:01;;;;;;;31.13;21.58;;;18.50;70.10;;;;;;4125065;28;20050;-67
2022/03/24 09:25:02;;;;;;;32.42;22.52;;;18.50;69.60;;;;;;4141393;28;20068;-66
2022/03/24 09:27:05;;;;;;;33.35;22.35;;;18.50;69.30;;;;;;4140775;28;20046;-67
2022/03/24 09:29:06;;;;;;;33.08;22.90;;;18.60;69.50;;;;;;4142844;28;20125;-67
2022/03/24 09:31:06;;;;;;;34.85;23.08;;;18.60;68.00;;;;;;4140480;28;20112;-66
2022/03/24 09:33:08;;;;;;;34.85;22.80;;;18.60;65.00;;;;;;4140802;28;20113;-66
2022/03/24 09:35:09;;;;;;;33.95;22.13;;;18.50;64.30;;;;;;4157705;28;20329;-67
2022/03/24 09:37:10;;;;;;;34.45;22.85;;;18.50;67.10;;;;;;4122845;28;20490;-66
2022/03/24 09:39:11;;;;;;;34.53;23.88;;;18.50;68.30;;;;;;4141717;28;20050;-66
2022/03/24 09:41:14;;;;;;;35.00;23.75;;;18.60;69.20;;;;;;4139866;28;20042;-66
2022/03/24 09:43:14;;;;;;;36.03;23.85;;;18.60;68.70;;;;;;4145249;28;20049;-66
2022/03/24 09:45:15;;;;;;;35.22;24.23;;;18.60;66.40;;;;;;4140247;28;20540;-67
2022/03/24 09:47:17;;;;;;;35.15;24.98;;;18.60;63.80;;;;;;4141937;28;20450;-67
2022/03/24 09:49:18;;;;;;;31.87;23.07;;;18.60;66.40;;;;;;4140817;28;20468;-67
2022/03/24 09:51:20;;;;;;;36.03;23.40;;;18.60;66.60;;;;;;4140163;28;20085;-67
2022/03/24 09:53:22;;;;;;;34.35;23.27;;;18.60;64.50;;;;;;4141216;28;20046;-67
2022/03/24 09:55:23;;;;;;;35.90;23.02;;;18.70;67.20;;;;;;4140749;28;20054;-67
2022/03/24 09:57:24;;;;;;;35.20;24.70;;;18.70;67.50;;;;;;4141514;28;20065;-67
2022/03/24 09:59:25;;;;;;;37.15;23.88;;;18.70;67.40;;;;;;4139158;28;20046;-67
2022/03/24 10:01:25;;;;;;;37.40;25.60;;;18.80;68.30;;;;;;4139553;28;20358;-67
2022/03/24 10:03:26;;;;;;;35.72;24.05;;;18.80;67.50;;;;;;4141625;28;21732;-67
2022/03/24 10:05:27;;;;;;;35.25;24.25;;;18.90;66.10;;;;;;4139338;28;20099;-68
2022/03/24 10:07:33;;;;;;;38.13;26.00;;;18.90;65.30;;;;;;4140878;28;20421;-68
2022/03/24 10:09:44;;;;;;;38.85;24.30;;;18.90;64.30;;;;;;4140431;28;20441;-67
2022/03/24 10:11:48;;;;;;;36.17;25.27;;;19.00;63.60;;;;;;4140356;28;20038;-67
2022/03/24 10:13:54;;;;;;;36.80;24.27;;;19.00;65.70;;;;;;4140645;28;20042;-67
2022/03/24 10:15:55;;;;;;;38.70;25.90;;;19.00;63.60;;;;;;4139626;28;20038;-67
2022/03/24 10:17:57;;;;;;;35.42;24.15;;;19.00;64.00;;;;;;4141417;28;20124;-67
2022/03/24 10:20:05;;;;;;;38.08;25.45;;;19.10;64.60;;;;;;4140619;28;20510;-68
2022/03/24 10:22:10;;;;;;;42.35;26.67;;;19.10;61.80;;;;;;4152723;28;20508;-67